Time;durP1;ratioP1;P1;durP2;ratioP2;P2;SDS_P1;SDS_P2;PMS_P1;PMS_P2;Temp;Humidity;BMP_temperature;BMP_pressure;BME280_temperature;BME280_humidity;BME280_pressure;Samples;Min_cycle;Max_cycle;Signal;HPM_P1;HPM_P2
2023/02/19 00:01:03;;;;;;;6.55;2.75;;;;;;;;;;5016163;28;20174;-59
2023/02/19 00:03:29;;;;;;;6.63;2.35;;;;;;;;;;5015619;28;20662;-58
2023/02/19 00:05:55;;;;;;;8.73;2.47;;;;;;;;;;5015403;28;20511;-60
2023/02/19 00:08:21;;;;;;;11.73;2.70;;;;;;;;;;5015081;28;20175;-59
2023/02/19 00:10:47;;;;;;;11.93;2.78;;;;;;;;;;5015049;28;20185;-60
2023/02/19 00:13:13;;;;;;;9.55;2.95;;;;;;;;;;5014469;28;20181;-61
2023/02/19 00:15:39;;;;;;;8.77;3.13;;;;;;;;;;5014940;28;20175;-61
2023/02/19 00:18:05;;;;;;;8.15;3.40;;;;;;;;;;5014954;28;20227;-61
2023/02/19 00:20:31;;;;;;;11.57;3.33;;;;;;;;;;5014905;28;20170;-61
2023/02/19 00:22:57;;;;;;;10.95;3.38;;;;;;;;;;5014624;28;20253;-61
2023/02/19 00:25:23;;;;;;;10.25;3.33;;;;;;;;;;5014735;28;20177;-61
2023/02/19 00:27:49;;;;;;;10.55;3.38;;;;;;;;;;5014996;28;20177;-60
2023/02/19 00:30:15;;;;;;;8.40;3.53;;;;;;;;;;5014610;28;20174;-61
2023/02/19 00:32:41;;;;;;;10.40;2.90;;;;;;;;;;5014503;28;20177;-61
2023/02/19 00:35:07;;;;;;;14.27;3.20;;;;;;;;;;5014103;28;20198;-59
2023/02/19 00:37:33;;;;;;;6.70;2.40;;;;;;;;;;5014459;28;20484;-59
2023/02/19 00:39:59;;;;;;;5.68;2.85;;;;;;;;;;5014495;28;20173;-57
2023/02/19 00:42:25;;;;;;;7.22;2.53;;;;;;;;;;5014263;28;20172;-61
2023/02/19 00:44:50;;;;;;;11.07;3.10;;;;;;;;;;5014032;28;20163;-60
2023/02/19 00:47:16;;;;;;;12.80;2.97;;;;;;;;;;5014044;28;20167;-60
2023/02/19 00:49:42;;;;;;;6.72;2.90;;;;;;;;;;5014231;28;20170;-61
2023/02/19 00:52:08;;;;;;;9.20;2.65;;;;;;;;;;5014263;28;20197;-59
2023/02/19 00:54:34;;;;;;;6.28;2.60;;;;;;;;;;5014087;28;20212;-60
2023/02/19 00:57:00;;;;;;;10.98;3.10;;;;;;;;;;5014528;28;20166;-59
2023/02/19 00:59:26;;;;;;;10.63;2.97;;;;;;;;;;5014361;28;20171;-60
2023/02/19 01:01:52;;;;;;;11.55;2.67;;;;;;;;;;5013876;28;20291;-61
2023/02/19 01:04:18;;;;;;;7.05;2.60;;;;;;;;;;5013142;28;20236;-60
2023/02/19 01:06:44;;;;;;;10.45;2.72;;;;;;;;;;5014042;28;20166;-60
2023/02/19 01:09:10;;;;;;;9.32;2.30;;;;;;;;;;5013887;28;20170;-61
2023/02/19 01:11:36;;;;;;;9.18;2.10;;;;;;;;;;5012758;28;20174;-61
2023/02/19 01:14:03;;;;;;;10.18;2.72;;;;;;;;;;5013496;28;20243;-60
2023/02/19 01:16:29;;;;;;;9.20;2.42;;;;;;;;;;5013778;28;20175;-60
2023/02/19 01:18:56;;;;;;;13.02;2.42;;;;;;;;;;5013340;28;20171;-61
2023/02/19 01:21:24;;;;;;;7.43;2.67;;;;;;;;;;5013398;28;20612;-59
2023/02/19 01:23:50;;;;;;;13.52;2.38;;;;;;;;;;5013643;28;20242;-57
2023/02/19 01:26:21;;;;;;;13.32;3.00;;;;;;;;;;5013573;28;20171;-58
2023/02/19 01:28:47;;;;;;;10.43;2.67;;;;;;;;;;5013580;28;20611;-57
2023/02/19 01:31:14;;;;;;;5.25;2.33;;;;;;;;;;5013621;28;20602;-57
2023/02/19 01:33:44;;;;;;;8.48;2.63;;;;;;;;;;5013314;28;20189;-58
2023/02/19 01:36:10;;;;;;;6.45;3.03;;;;;;;;;;5013800;28;20166;-60
2023/02/19 01:38:36;;;;;;;8.77;2.63;;;;;;;;;;5013710;28;20243;-59
2023/02/19 01:41:04;;;;;;;9.25;2.70;;;;;;;;;;5013141;28;20269;-57
2023/02/19 01:43:31;;;;;;;11.40;2.80;;;;;;;;;;5013205;28;20184;-59
2023/02/19 01:45:57;;;;;;;10.60;2.88;;;;;;;;;;5012925;28;20205;-58
2023/02/19 01:48:27;;;;;;;10.60;2.60;;;;;;;;;;5013545;28;20166;-56
2023/02/19 01:51:13;;;;;;;10.48;2.75;;;;;;;;;;5013043;28;20585;-60
2023/02/19 01:53:41;;;;;;;8.55;2.67;;;;;;;;;;5012923;28;20198;-61
2023/02/19 01:56:07;;;;;;;9.57;2.58;;;;;;;;;;5012860;28;20166;-61
2023/02/19 01:58:34;;;;;;;13.73;3.20;;;;;;;;;;5012788;28;20166;-61
2023/02/19 02:01:01;;;;;;;8.77;2.88;;;;;;;;;;5012847;28;20162;-61
2023/02/19 02:03:27;;;;;;;9.32;2.92;;;;;;;;;;5012711;28;20178;-61
2023/02/19 02:06:00;;;;;;;7.03;2.80;;;;;;;;;;5012617;28;20170;-60
2023/02/19 02:11:11;;;;;;;10.95;2.50;;;;;;;;;;5013003;28;20207;-60
2023/02/19 02:13:37;;;;;;;9.10;2.83;;;;;;;;;;5013078;28;20197;-58
2023/02/19 02:16:08;;;;;;;11.55;3.25;;;;;;;;;;5012557;28;20182;-58
2023/02/19 02:18:46;;;;;;;5.93;1.85;;;;;;;;;;5012922;28;20151;-60
2023/02/19 02:21:18;;;;;;;7.80;1.85;;;;;;;;;;5012501;28;20173;-61
2023/02/19 02:23:56;;;;;;;3.90;2.08;;;;;;;;;;5012865;28;20230;-61
2023/02/19 02:26:22;;;;;;;9.45;2.55;;;;;;;;;;5012596;28;20180;-60
2023/02/19 02:29:03;;;;;;;8.40;1.65;;;;;;;;;;5012797;28;20174;-60
2023/02/19 02:31:39;;;;;;;7.80;2.60;;;;;;;;;;5012575;28;20159;-60
2023/02/19 02:34:16;;;;;;;6.60;2.03;;;;;;;;;;5012792;28;20194;-60
2023/02/19 02:36:43;;;;;;;11.80;1.90;;;;;;;;;;5012563;28;20174;-59
2023/02/19 02:39:12;;;;;;;8.30;2.38;;;;;;;;;;5012901;28;20200;-59
2023/02/19 02:41:45;;;;;;;7.63;1.80;;;;;;;;;;5012919;28;20173;-59
2023/02/19 02:44:11;;;;;;;6.68;1.90;;;;;;;;;;5012924;28;20467;-59
2023/02/19 02:46:40;;;;;;;9.70;2.05;;;;;;;;;;5012498;28;20166;-57
2023/02/19 02:49:08;;;;;;;5.80;1.70;;;;;;;;;;5012303;28;20506;-58
2023/02/19 02:51:38;;;;;;;10.93;2.30;;;;;;;;;;5012638;28;20173;-59
2023/02/19 02:56:52;;;;;;;9.38;2.20;;;;;;;;;;5012489;28;20189;-59
2023/02/19 02:59:19;;;;;;;3.97;1.60;;;;;;;;;;5012658;28;20257;-60
2023/02/19 03:05:50;;;;;;;6.35;1.88;;;;;;;;;;5012562;28;20222;-59
2023/02/19 03:07:26;;;;;;;10.52;1.80;;;;;;;;;;5012180;28;20613;-58
2023/02/19 03:09:52;;;;;;;7.32;2.20;;;;;;;;;;5012066;28;20608;-59
2023/02/19 03:20:46;;;;;;;8.55;1.40;;;;;;;;;;5012022;28;20663;-61
2023/02/19 03:23:13;;;;;;;6.50;2.05;;;;;;;;;;5012159;28;20159;-61
2023/02/19 03:31:14;;;;;;;7.03;1.65;;;;;;;;;;5015816;28;20505;-58
2023/02/19 03:33:42;;;;;;;14.05;2.53;;;;;;;;;;5016489;28;20520;-61
2023/02/19 03:36:11;;;;;;;7.13;1.55;;;;;;;;;;5015864;28;20177;-60
2023/02/19 03:38:39;;;;;;;4.85;1.58;;;;;;;;;;5015614;28;20162;-60
2023/02/19 03:41:27;;;;;;;6.57;1.70;;;;;;;;;;5015724;28;20167;-61
2023/02/19 03:44:01;;;;;;;9.70;1.83;;;;;;;;;;5015401;28;20182;-60
2023/02/19 03:46:53;;;;;;;9.10;2.35;;;;;;;;;;5015099;28;20146;-61
2023/02/19 03:49:24;;;;;;;5.68;1.85;;;;;;;;;;5017703;28;20190;-59
2023/02/19 03:51:57;;;;;;;3.97;1.70;;;;;;;;;;5015089;28;20155;-60
2023/02/19 03:54:46;;;;;;;8.80;1.60;;;;;;;;;;5014768;28;20621;-61
2023/02/19 03:57:22;;;;;;;6.50;2.10;;;;;;;;;;5015031;28;20158;-61
2023/02/19 03:59:52;;;;;;;6.65;1.67;;;;;;;;;;5014779;28;20227;-59
2023/02/19 04:02:27;;;;;;;7.47;1.45;;;;;;;;;;5015549;28;20289;-60
2023/02/19 04:05:00;;;;;;;7.63;1.80;;;;;;;;;;5015550;28;20170;-60
2023/02/19 04:07:26;;;;;;;5.90;1.60;;;;;;;;;;5014971;28;20158;-61
2023/02/19 04:09:53;;;;;;;2.83;1.08;;;;;;;;;;5014833;28;20184;-59
2023/02/19 04:12:20;;;;;;;7.13;1.60;;;;;;;;;;5014452;28;20170;-61
2023/02/19 04:14:56;;;;;;;7.32;1.42;;;;;;;;;;5014675;28;20198;-58
2023/02/19 04:17:31;;;;;;;5.55;1.27;;;;;;;;;;5014658;28;20169;-59
2023/02/19 04:19:58;;;;;;;7.68;1.48;;;;;;;;;;5014484;28;20545;-60
2023/02/19 04:22:24;;;;;;;9.95;1.60;;;;;;;;;;5014572;28;20213;-61
2023/02/19 04:24:52;;;;;;;7.07;1.60;;;;;;;;;;5015113;28;20186;-61
2023/02/19 04:27:18;;;;;;;10.35;1.90;;;;;;;;;;5015040;28;20189;-60
2023/02/19 04:29:44;;;;;;;6.85;1.98;;;;;;;;;;5014963;28;20190;-60
2023/02/19 04:32:11;;;;;;;9.75;1.33;;;;;;;;;;5014844;28;20171;-61
2023/02/19 04:34:37;;;;;;;9.45;1.70;;;;;;;;;;5014434;28;20517;-62
2023/02/19 04:37:03;;;;;;;4.20;1.30;;;;;;;;;;5014373;28;20173;-61
2023/02/19 04:39:29;;;;;;;7.93;1.60;;;;;;;;;;5012903;28;20623;-61
2023/02/19 04:41:55;;;;;;;15.18;1.42;;;;;;;;;;5013949;28;20234;-59
2023/02/19 04:44:21;;;;;;;6.18;1.40;;;;;;;;;;5014124;28;20166;-61
2023/02/19 04:46:47;;;;;;;6.32;1.63;;;;;;;;;;5014170;28;20171;-59
2023/02/19 04:49:13;;;;;;;8.63;1.42;;;;;;;;;;5013919;28;20597;-58
2023/02/19 04:51:39;;;;;;;8.23;1.60;;;;;;;;;;5014131;28;20219;-60
2023/02/19 04:54:05;;;;;;;6.63;1.17;;;;;;;;;;5013845;28;20189;-61
2023/02/19 04:56:31;;;;;;;11.32;1.58;;;;;;;;;;5014137;28;20245;-61
2023/02/19 04:58:57;;;;;;;9.35;1.55;;;;;;;;;;5014232;28;20661;-60
2023/02/19 05:01:24;;;;;;;5.70;1.70;;;;;;;;;;5013624;28;20178;-60
2023/02/19 05:03:50;;;;;;;7.75;2.75;;;;;;;;;;5013751;28;20269;-60
2023/02/19 05:06:16;;;;;;;11.05;1.83;;;;;;;;;;5013635;28;20589;-61
2023/02/19 05:08:42;;;;;;;8.07;1.38;;;;;;;;;;5013911;28;20178;-61
2023/02/19 05:11:09;;;;;;;7.45;1.50;;;;;;;;;;5013566;28;20185;-61
2023/02/19 05:13:35;;;;;;;4.03;1.27;;;;;;;;;;5013612;28;20178;-60
2023/02/19 05:16:05;;;;;;;12.20;1.60;;;;;;;;;;5013521;28;20162;-61
2023/02/19 05:18:33;;;;;;;8.82;1.85;;;;;;;;;;5013825;28;20181;-61
2023/02/19 05:20:59;;;;;;;6.20;1.02;;;;;;;;;;5013432;28;20601;-61
2023/02/19 05:23:25;;;;;;;8.85;1.63;;;;;;;;;;5013720;28;20166;-57
2023/02/19 05:25:51;;;;;;;6.40;1.52;;;;;;;;;;5013713;28;20232;-57
2023/02/19 05:28:17;;;;;;;6.47;1.10;;;;;;;;;;5013698;28;20170;-57
2023/02/19 05:30:44;;;;;;;8.60;1.60;;;;;;;;;;5013931;28;20167;-58
2023/02/19 05:33:10;;;;;;;9.77;1.20;;;;;;;;;;5013597;28;20197;-58
2023/02/19 05:35:43;;;;;;;7.20;1.75;;;;;;;;;;5013723;28;20233;-60
2023/02/19 05:38:10;;;;;;;11.45;1.38;;;;;;;;;;5013142;28;20605;-59
2023/02/19 05:40:36;;;;;;;7.82;1.40;;;;;;;;;;5013737;28;20263;-60
2023/02/19 05:43:02;;;;;;;7.60;1.75;;;;;;;;;;5013657;28;20174;-58
2023/02/19 05:45:27;;;;;;;3.65;1.08;;;;;;;;;;5013455;28;20555;-58
2023/02/19 05:47:53;;;;;;;9.63;1.40;;;;;;;;;;5013294;28;20170;-56
2023/02/19 05:50:19;;;;;;;7.13;1.65;;;;;;;;;;5013059;28;20204;-60
2023/02/19 05:52:45;;;;;;;9.95;1.15;;;;;;;;;;5013440;28;20264;-58
2023/02/19 05:55:11;;;;;;;5.38;1.30;;;;;;;;;;5013432;28;20194;-60
2023/02/19 05:57:45;;;;;;;3.30;1.20;;;;;;;;;;5012941;28;20227;-59
2023/02/19 06:00:16;;;;;;;8.75;1.35;;;;;;;;;;5013156;28;20193;-59
2023/02/19 06:02:42;;;;;;;7.93;1.75;;;;;;;;;;5012699;28;20639;-60
2023/02/19 06:05:08;;;;;;;6.63;1.35;;;;;;;;;;5013222;28;20219;-60
2023/02/19 06:07:35;;;;;;;5.85;1.10;;;;;;;;;;5012948;28;20174;-60
2023/02/19 06:10:01;;;;;;;10.98;1.75;;;;;;;;;;5013058;28;20257;-61
2023/02/19 06:12:27;;;;;;;6.78;1.10;;;;;;;;;;5012814;28;20166;-58
2023/02/19 06:14:53;;;;;;;7.47;1.40;;;;;;;;;;5013073;28;20208;-58
2023/02/19 06:17:19;;;;;;;5.95;1.05;;;;;;;;;;5012694;28;20198;-60
2023/02/19 06:19:45;;;;;;;6.85;1.13;;;;;;;;;;5012622;28;20219;-60
2023/02/19 06:22:11;;;;;;;7.80;2.17;;;;;;;;;;5012556;28;20163;-60
2023/02/19 06:24:37;;;;;;;9.80;1.85;;;;;;;;;;5012858;28;20166;-59
2023/02/19 06:27:06;;;;;;;11.45;1.40;;;;;;;;;;5012711;28;20204;-61
2023/02/19 06:29:32;;;;;;;10.38;1.38;;;;;;;;;;5012611;28;20171;-61
2023/02/19 06:31:59;;;;;;;9.30;1.20;;;;;;;;;;5012385;28;20227;-61
2023/02/19 06:34:25;;;;;;;5.20;1.20;;;;;;;;;;5012635;28;20289;-60
2023/02/19 06:36:51;;;;;;;9.57;1.40;;;;;;;;;;5012808;28;20246;-59
2023/02/19 06:39:17;;;;;;;7.60;1.13;;;;;;;;;;5012756;28;20552;-58
2023/02/19 06:41:43;;;;;;;7.22;1.55;;;;;;;;;;5012970;28;20190;-58
2023/02/19 06:44:09;;;;;;;8.43;1.52;;;;;;;;;;5012797;28;20174;-61
2023/02/19 06:46:35;;;;;;;6.07;1.25;;;;;;;;;;5012547;28;20249;-61
2023/02/19 06:49:03;;;;;;;5.55;1.40;;;;;;;;;;5012197;28;20561;-61
2023/02/19 06:51:29;;;;;;;8.20;1.35;;;;;;;;;;5012554;28;20326;-60
2023/02/19 06:53:56;;;;;;;5.85;1.30;;;;;;;;;;5012374;28;20202;-59
2023/02/19 06:56:23;;;;;;;8.07;1.10;;;;;;;;;;5012785;28;20254;-59
2023/02/19 06:58:50;;;;;;;5.15;1.30;;;;;;;;;;5012369;28;20628;-58
2023/02/19 07:01:15;;;;;;;7.25;1.48;;;;;;;;;;5012570;28;20170;-60
2023/02/19 07:03:41;;;;;;;4.85;1.23;;;;;;;;;;5014501;28;20647;-59
2023/02/19 07:06:07;;;;;;;7.65;1.23;;;;;;;;;;5016125;28;20167;-60
2023/02/19 07:08:33;;;;;;;7.50;1.45;;;;;;;;;;5016595;28;20256;-61
2023/02/19 07:10:59;;;;;;;5.72;1.58;;;;;;;;;;5015651;28;20357;-59
2023/02/19 07:13:26;;;;;;;6.28;1.30;;;;;;;;;;5015567;28;20177;-60
2023/02/19 07:15:57;;;;;;;4.00;1.02;;;;;;;;;;5015680;28;20166;-60
2023/02/19 07:18:23;;;;;;;2.60;1.00;;;;;;;;;;5015359;28;20638;-61
2023/02/19 07:20:49;;;;;;;7.18;1.27;;;;;;;;;;5015283;28;20166;-59
2023/02/19 07:23:14;;;;;;;6.38;1.33;;;;;;;;;;5015293;28;20204;-61
2023/02/19 07:25:40;;;;;;;5.03;1.08;;;;;;;;;;5015756;28;20181;-60
2023/02/19 07:28:06;;;;;;;9.50;1.80;;;;;;;;;;5015506;28;20504;-59
2023/02/19 07:30:32;;;;;;;4.10;0.98;;;;;;;;;;5015539;28;20264;-61
2023/02/19 07:32:58;;;;;;;9.52;1.45;;;;;;;;;;5015425;28;20194;-60
2023/02/19 07:35:24;;;;;;;4.75;0.98;;;;;;;;;;5015028;28;20191;-61
2023/02/19 07:37:50;;;;;;;6.30;1.33;;;;;;;;;;5015029;28;20176;-61
2023/02/19 07:40:16;;;;;;;7.38;1.45;;;;;;;;;;5015761;28;20596;-61
2023/02/19 07:42:42;;;;;;;2.78;1.00;;;;;;;;;;5015358;28;20196;-61
2023/02/19 07:45:08;;;;;;;8.80;1.27;;;;;;;;;;5015331;28;20193;-60
2023/02/19 07:47:34;;;;;;;6.75;1.27;;;;;;;;;;5015279;28;20201;-60
2023/02/19 07:50:00;;;;;;;5.30;1.02;;;;;;;;;;5015915;28;20175;-60
2023/02/19 07:52:27;;;;;;;5.70;1.25;;;;;;;;;;5015561;28;20198;-61
2023/02/19 07:54:53;;;;;;;5.30;0.98;;;;;;;;;;5014977;28;20194;-61
2023/02/19 07:57:19;;;;;;;4.22;1.17;;;;;;;;;;5014833;28;20617;-59
2023/02/19 07:59:45;;;;;;;5.60;1.25;;;;;;;;;;5015041;28;20576;-61
2023/02/19 08:05:00;;;;;;;6.97;1.75;;;;;;;;;;5014949;28;20185;-61
2023/02/19 08:07:31;;;;;;;6.88;1.45;;;;;;;;;;5014927;28;20604;-61
2023/02/19 08:15:26;;;;;;;4.95;1.00;;;;;;;;;;5014474;28;20549;-61
2023/02/19 08:17:52;;;;;;;8.38;1.40;;;;;;;;;;5014708;28;20158;-61
2023/02/19 08:20:18;;;;;;;6.20;1.10;;;;;;;;;;5014558;28;20177;-61
2023/02/19 08:22:44;;;;;;;2.90;0.98;;;;;;;;;;5014971;28;20166;-61
2023/02/19 08:25:10;;;;;;;6.78;1.00;;;;;;;;;;5014703;28;20177;-60
2023/02/19 08:27:35;;;;;;;8.38;1.10;;;;;;;;;;5016065;28;20286;-62
2023/02/19 08:30:01;;;;;;;7.22;1.13;;;;;;;;;;5014640;28;20170;-61
2023/02/19 08:32:27;;;;;;;4.90;0.90;;;;;;;;;;5014403;28;20166;-60
2023/02/19 08:34:53;;;;;;;6.88;1.45;;;;;;;;;;5014414;28;20194;-61
2023/02/19 08:37:19;;;;;;;3.95;1.10;;;;;;;;;;5014491;28;20222;-59
2023/02/19 08:39:45;;;;;;;1.98;0.90;;;;;;;;;;5014448;28;20167;-60
2023/02/19 08:42:11;;;;;;;7.63;1.45;;;;;;;;;;5014470;28;20485;-60
2023/02/19 08:44:37;;;;;;;2.45;0.98;;;;;;;;;;5014102;28;20597;-60
2023/02/19 08:47:04;;;;;;;7.45;1.25;;;;;;;;;;5014396;28;20163;-62
2023/02/19 08:49:30;;;;;;;5.85;1.20;;;;;;;;;;5014250;28;20257;-61
2023/02/19 08:51:56;;;;;;;3.70;1.27;;;;;;;;;;5014030;28;20206;-61
2023/02/19 08:54:22;;;;;;;4.13;1.20;;;;;;;;;;5013825;28;20185;-61
2023/02/19 08:56:48;;;;;;;3.53;1.17;;;;;;;;;;5014313;28;20162;-60
2023/02/19 08:59:14;;;;;;;3.90;0.82;;;;;;;;;;5014120;28;20604;-61
2023/02/19 09:01:40;;;;;;;4.28;1.10;;;;;;;;;;5013919;28;20177;-61
2023/02/19 09:04:06;;;;;;;8.13;1.25;;;;;;;;;;5014141;28;20150;-61
2023/02/19 09:06:32;;;;;;;3.25;0.90;;;;;;;;;;5014313;28;20170;-59
2023/02/19 09:08:57;;;;;;;7.68;1.05;;;;;;;;;;5014086;28;20265;-60
2023/02/19 09:11:23;;;;;;;3.67;0.98;;;;;;;;;;5013914;28;20166;-60
2023/02/19 09:13:49;;;;;;;3.22;1.00;;;;;;;;;;5013730;28;20198;-59
2023/02/19 09:16:15;;;;;;;3.58;0.98;;;;;;;;;;5013862;28;20162;-62
2023/02/19 09:18:42;;;;;;;5.07;1.10;;;;;;;;;;5013522;28;20173;-61
2023/02/19 09:21:08;;;;;;;2.63;0.75;;;;;;;;;;5013721;28;20162;-61
2023/02/19 09:23:34;;;;;;;6.47;1.10;;;;;;;;;;5013730;28;20472;-61
2023/02/19 09:26:02;;;;;;;5.50;1.15;;;;;;;;;;5013029;28;20175;-60
2023/02/19 09:28:28;;;;;;;6.53;2.00;;;;;;;;;;5013663;28;20170;-60
2023/02/19 09:30:54;;;;;;;4.13;1.20;;;;;;;;;;5013706;28;20395;-60
2023/02/19 09:33:19;;;;;;;5.15;1.00;;;;;;;;;;5013650;28;20202;-57
2023/02/19 09:35:45;;;;;;;4.30;1.05;;;;;;;;;;5013368;28;20233;-59
2023/02/19 09:38:11;;;;;;;3.67;0.90;;;;;;;;;;5013426;28;20170;-59
2023/02/19 09:40:38;;;;;;;6.10;0.80;;;;;;;;;;5013159;28;20174;-58
2023/02/19 09:43:11;;;;;;;7.15;0.90;;;;;;;;;;5013158;28;20250;-57
2023/02/19 09:45:37;;;;;;;4.80;1.10;;;;;;;;;;5013422;28;20166;-61
2023/02/19 09:48:05;;;;;;;3.53;0.60;;;;;;;;;;5013113;28;20194;-62
2023/02/19 09:50:38;;;;;;;4.38;1.10;;;;;;;;;;5013462;28;20243;-60
2023/02/19 09:53:05;;;;;;;4.47;1.20;;;;;;;;;;5013426;28;20167;-62
2023/02/19 09:55:36;;;;;;;3.92;0.82;;;;;;;;;;5012810;28;20518;-59
2023/02/19 09:58:08;;;;;;;3.47;1.13;;;;;;;;;;5013206;28;20174;-57
2023/02/19 10:00:34;;;;;;;4.70;0.80;;;;;;;;;;5013183;28;20154;-60
2023/02/19 10:03:29;;;;;;;2.92;0.73;;;;;;;;;;5012833;28;20684;-60
2023/02/19 10:05:56;;;;;;;3.38;0.70;;;;;;;;;;5014177;28;20178;-61
2023/02/19 10:08:22;;;;;;;2.58;0.75;;;;;;;;;;5013182;28;20174;-60
2023/02/19 10:10:48;;;;;;;6.00;0.95;;;;;;;;;;5012765;28;20241;-61
2023/02/19 10:13:28;;;;;;;7.03;1.10;;;;;;;;;;5013427;28;20170;-61
2023/02/19 10:15:55;;;;;;;4.18;0.90;;;;;;;;;;5012644;28;20193;-61
2023/02/19 10:18:23;;;;;;;4.22;0.98;;;;;;;;;;5013058;28;20234;-61
2023/02/19 10:20:50;;;;;;;4.90;0.88;;;;;;;;;;5013019;28;20174;-60
2023/02/19 10:23:16;;;;;;;4.40;0.88;;;;;;;;;;5012939;28;20171;-61
2023/02/19 10:25:44;;;;;;;4.50;1.17;;;;;;;;;;5013061;28;20486;-60
2023/02/19 10:28:13;;;;;;;7.15;0.80;;;;;;;;;;5013116;28;20257;-61
2023/02/19 10:30:40;;;;;;;4.85;0.80;;;;;;;;;;5012805;28;20255;-62
2023/02/19 10:33:11;;;;;;;4.47;0.95;;;;;;;;;;5014596;28;20174;-61
2023/02/19 10:35:56;;;;;;;6.05;0.68;;;;;;;;;;5014924;28;20202;-60
2023/02/19 10:38:24;;;;;;;5.20;0.90;;;;;;;;;;5015807;28;20687;-61
2023/02/19 10:40:56;;;;;;;2.55;0.50;;;;;;;;;;5017259;28;20179;-60
2023/02/19 10:43:30;;;;;;;4.68;0.70;;;;;;;;;;5015785;28;20155;-60
2023/02/19 10:45:56;;;;;;;4.03;1.05;;;;;;;;;;5018031;28;20162;-60
2023/02/19 10:48:30;;;;;;;3.92;0.75;;;;;;;;;;5014637;28;20182;-61
2023/02/19 10:51:03;;;;;;;5.53;0.85;;;;;;;;;;5012762;28;20497;-60
2023/02/19 10:53:43;;;;;;;4.80;0.85;;;;;;;;;;5012692;28;20249;-62
2023/02/19 10:56:14;;;;;;;3.72;0.82;;;;;;;;;;5012121;28;20657;-61
2023/02/19 10:58:41;;;;;;;5.00;0.68;;;;;;;;;;5012546;28;20173;-61
2023/02/19 11:01:11;;;;;;;3.05;0.50;;;;;;;;;;5012447;28;20194;-59
2023/02/19 11:03:37;;;;;;;3.95;0.70;;;;;;;;;;5012159;28;20574;-61
2023/02/19 11:06:05;;;;;;;3.13;0.70;;;;;;;;;;5012005;28;20620;-61
2023/02/19 11:08:39;;;;;;;8.95;1.20;;;;;;;;;;5012560;28;20189;-59
2023/02/19 11:11:05;;;;;;;4.70;0.75;;;;;;;;;;5012541;28;20158;-58
2023/02/19 11:13:36;;;;;;;2.92;0.60;;;;;;;;;;5012208;28;20593;-59
2023/02/19 11:16:02;;;;;;;4.68;1.08;;;;;;;;;;5012248;28;20173;-62
2023/02/19 11:18:30;;;;;;;3.95;0.60;;;;;;;;;;5012254;28;20184;-59
2023/02/19 11:20:56;;;;;;;2.35;0.60;;;;;;;;;;5012232;28;20186;-60
2023/02/19 11:23:27;;;;;;;9.55;0.88;;;;;;;;;;5012062;28;20563;-60
2023/02/19 11:25:56;;;;;;;3.63;0.63;;;;;;;;;;5012123;28;20181;-61
2023/02/19 11:28:22;;;;;;;2.47;0.70;;;;;;;;;;5011946;28;20612;-61
2023/02/19 11:30:48;;;;;;;4.35;0.60;;;;;;;;;;5012153;28;20222;-60
2023/02/19 11:33:18;;;;;;;3.40;0.65;;;;;;;;;;5012202;28;20230;-60
2023/02/19 11:35:44;;;;;;;6.57;0.70;;;;;;;;;;5011425;28;20205;-61
2023/02/19 11:38:11;;;;;;;2.15;0.60;;;;;;;;;;5012355;28;20174;-61
2023/02/19 11:40:49;;;;;;;3.45;0.70;;;;;;;;;;5011650;28;20224;-60
2023/02/19 11:43:21;;;;;;;5.53;0.90;;;;;;;;;;5011938;28;20224;-60
2023/02/19 11:45:50;;;;;;;2.40;0.70;;;;;;;;;;5011617;28;20242;-60
2023/02/19 11:48:19;;;;;;;3.10;0.80;;;;;;;;;;5012117;28;20166;-62
2023/02/19 11:51:05;;;;;;;4.20;0.88;;;;;;;;;;5014856;28;20199;-60
2023/02/19 11:53:32;;;;;;;5.68;0.85;;;;;;;;;;5015271;28;20207;-61
2023/02/19 11:56:24;;;;;;;2.05;0.75;;;;;;;;;;5015136;28;20527;-61
2023/02/19 11:58:53;;;;;;;4.07;1.10;;;;;;;;;;5018128;28;20186;-61
2023/02/19 12:01:26;;;;;;;5.13;1.17;;;;;;;;;;5014797;28;20162;-60
2023/02/19 12:04:01;;;;;;;4.72;1.20;;;;;;;;;;5014662;28;20185;-61
2023/02/19 12:06:46;;;;;;;4.82;0.75;;;;;;;;;;5014874;28;20154;-61
2023/02/19 12:09:21;;;;;;;3.95;1.25;;;;;;;;;;5014828;28;20293;-60
2023/02/19 12:11:54;;;;;;;4.13;0.90;;;;;;;;;;5014859;28;20162;-60
2023/02/19 12:14:35;;;;;;;2.85;1.00;;;;;;;;;;5014581;28;20201;-60
2023/02/19 12:17:13;;;;;;;3.22;0.77;;;;;;;;;;5014631;28;20177;-61
2023/02/19 12:19:58;;;;;;;3.15;0.70;;;;;;;;;;5014415;28;20679;-61
2023/02/19 12:22:29;;;;;;;3.13;0.80;;;;;;;;;;5014493;28;20288;-61
2023/02/19 12:25:18;;;;;;;4.72;0.70;;;;;;;;;;5014854;28;20174;-61
2023/02/19 12:27:50;;;;;;;4.15;0.65;;;;;;;;;;5014341;28;20629;-61
2023/02/19 12:30:32;;;;;;;3.40;0.80;;;;;;;;;;5014760;28;20182;-61
2023/02/19 12:32:58;;;;;;;4.00;1.00;;;;;;;;;;5014163;28;20163;-60
2023/02/19 12:35:28;;;;;;;3.20;0.80;;;;;;;;;;5014317;28;20338;-61
2023/02/19 12:38:03;;;;;;;4.78;0.82;;;;;;;;;;5014436;28;20159;-60
2023/02/19 12:40:35;;;;;;;1.52;0.75;;;;;;;;;;5014464;28;20174;-60
2023/02/19 12:43:17;;;;;;;2.97;0.70;;;;;;;;;;5014128;28;20197;-61
2023/02/19 12:45:57;;;;;;;2.85;0.65;;;;;;;;;;5014444;28;20174;-60
2023/02/19 12:48:23;;;;;;;2.17;0.70;;;;;;;;;;5013943;28;20170;-60
2023/02/19 12:50:54;;;;;;;2.60;0.55;;;;;;;;;;5014349;28;20269;-61
2023/02/19 12:53:32;;;;;;;2.45;0.52;;;;;;;;;;5014364;28;20213;-60
2023/02/19 12:55:59;;;;;;;2.60;0.63;;;;;;;;;;5014180;28;20198;-61
2023/02/19 12:58:28;;;;;;;3.42;0.98;;;;;;;;;;5014148;28;20177;-59
2023/02/19 13:00:58;;;;;;;3.35;0.82;;;;;;;;;;5013172;28;20176;-60
2023/02/19 13:03:29;;;;;;;3.20;1.00;;;;;;;;;;5013846;28;20193;-61
2023/02/19 13:05:59;;;;;;;6.72;0.95;;;;;;;;;;5014533;28;20661;-58
2023/02/19 13:08:32;;;;;;;4.55;0.68;;;;;;;;;;5014393;28;20226;-59
2023/02/19 13:11:18;;;;;;;4.05;0.85;;;;;;;;;;5014538;28;20557;-61
2023/02/19 13:13:49;;;;;;;3.00;0.75;;;;;;;;;;5013770;28;20200;-61
2023/02/19 13:16:17;;;;;;;3.35;0.47;;;;;;;;;;5013821;28;20196;-61
2023/02/19 13:18:49;;;;;;;1.80;0.60;;;;;;;;;;5013509;28;20167;-60
2023/02/19 13:24:06;;;;;;;2.38;0.50;;;;;;;;;;5013831;28;20252;-60
2023/02/19 13:26:45;;;;;;;2.65;0.70;;;;;;;;;;5013481;28;20159;-60
2023/02/19 13:29:11;;;;;;;1.98;0.50;;;;;;;;;;5013812;28;20162;-61
2023/02/19 13:31:40;;;;;;;3.88;0.70;;;;;;;;;;5013714;28;20167;-61
2023/02/19 13:34:35;;;;;;;2.72;0.60;;;;;;;;;;5013479;28;20252;-61
2023/02/19 13:37:02;;;;;;;1.80;0.68;;;;;;;;;;5084223;28;20233;-60
2023/02/19 13:39:28;;;;;;;3.65;0.85;;;;;;;;;;5013301;28;20609;-61
2023/02/19 13:41:55;;;;;;;3.17;0.60;;;;;;;;;;5013530;28;20258;-61
2023/02/19 13:44:25;;;;;;;6.15;1.02;;;;;;;;;;5013305;28;20202;-61
2023/02/19 13:46:51;;;;;;;2.53;0.68;;;;;;;;;;5013066;28;20657;-58
2023/02/19 13:49:23;;;;;;;2.58;1.00;;;;;;;;;;5014106;28;20507;-59
2023/02/19 13:51:54;;;;;;;1.77;1.00;;;;;;;;;;5013490;28;20170;-59
2023/02/19 13:54:22;;;;;;;3.40;0.63;;;;;;;;;;5013703;28;20194;-59
2023/02/19 13:56:48;;;;;;;2.88;1.08;;;;;;;;;;5013688;28;20170;-59
2023/02/19 13:59:25;;;;;;;0.98;0.60;;;;;;;;;;5013297;28;20222;-58
2023/02/19 14:01:54;;;;;;;3.97;0.77;;;;;;;;;;5013128;28;20202;-59
2023/02/19 14:04:20;;;;;;;1.92;0.52;;;;;;;;;;5013250;28;20177;-61
2023/02/19 14:07:04;;;;;;;2.00;0.60;;;;;;;;;;5013358;28;20174;-62
2023/02/19 14:09:34;;;;;;;3.75;0.70;;;;;;;;;;5013133;28;20264;-61
2023/02/19 14:12:09;;;;;;;2.20;0.40;;;;;;;;;;5012743;28;20198;-62
2023/02/19 14:14:38;;;;;;;3.50;0.90;;;;;;;;;;5013228;28;20245;-61
2023/02/19 14:17:24;;;;;;;2.83;0.60;;;;;;;;;;5013004;28;20166;-60
2023/02/19 14:19:54;;;;;;;2.08;0.60;;;;;;;;;;5013113;28;20565;-61
2023/02/19 14:22:38;;;;;;;2.20;0.75;;;;;;;;;;5013392;28;20222;-60
2023/02/19 14:25:09;;;;;;;2.63;0.85;;;;;;;;;;5013672;28;20185;-59
2023/02/19 14:27:34;;;;;;;1.77;0.63;;;;;;;;;;5014017;28;20173;-61
2023/02/19 14:30:01;;;;;;;2.15;0.60;;;;;;;;;;5013364;28;20170;-60
2023/02/19 14:32:27;;;;;;;0.93;0.50;;;;;;;;;;5014340;28;20175;-60
2023/02/19 14:34:53;;;;;;;6.95;1.02;;;;;;;;;;5013863;28;20197;-61
2023/02/19 14:37:20;;;;;;;2.85;0.50;;;;;;;;;;5015293;28;20219;-61
2023/02/19 14:39:46;;;;;;;2.47;0.82;;;;;;;;;;5014916;28;20167;-61
2023/02/19 14:42:16;;;;;;;1.17;0.57;;;;;;;;;;5013400;28;20226;-61
2023/02/19 14:44:56;;;;;;;2.53;0.57;;;;;;;;;;5012785;28;20174;-62
2023/02/19 14:47:23;;;;;;;1.33;0.50;;;;;;;;;;5012607;28;20213;-60
2023/02/19 14:49:54;;;;;;;1.63;0.60;;;;;;;;;;5012806;28;20209;-62
2023/02/19 14:52:23;;;;;;;3.45;0.82;;;;;;;;;;5012710;28;20523;-60
2023/02/19 14:55:00;;;;;;;2.70;0.82;;;;;;;;;;5012562;28;20198;-62
2023/02/19 14:57:32;;;;;;;3.67;0.68;;;;;;;;;;5012789;28;20226;-61
2023/02/19 14:59:59;;;;;;;1.70;0.60;;;;;;;;;;5012820;28;20178;-62
2023/02/19 15:02:26;;;;;;;3.50;0.70;;;;;;;;;;5012518;28;20243;-60
2023/02/19 15:04:53;;;;;;;4.55;1.08;;;;;;;;;;5012591;28;20174;-61
2023/02/19 15:07:24;;;;;;;1.10;0.45;;;;;;;;;;5012685;28;20506;-62
2023/02/19 15:09:51;;;;;;;1.65;0.40;;;;;;;;;;5012642;28;20256;-62
2023/02/19 15:12:19;;;;;;;2.75;0.40;;;;;;;;;;5012316;28;20635;-61
2023/02/19 15:14:45;;;;;;;3.40;0.60;;;;;;;;;;5012202;28;20190;-59
2023/02/19 15:17:15;;;;;;;3.03;0.50;;;;;;;;;;5012579;28;20166;-61
2023/02/19 15:19:42;;;;;;;2.03;0.40;;;;;;;;;;5012384;28;20162;-61
2023/02/19 15:22:12;;;;;;;1.35;0.50;;;;;;;;;;5012508;28;20174;-62
2023/02/19 15:24:42;;;;;;;2.13;0.60;;;;;;;;;;5014253;28;20161;-62